sensor_id;sensor_type;location;lat;lon;timestamp;P1;durP1;ratioP1;P2;durP2;ratioP2
32808;SDS011;19159;48.178;16.386;2024-01-30T00:01:14;20.50;;;12.18;;
32808;SDS011;19159;48.178;16.386;2024-01-30T00:03:40;17.25;;;11.63;;
32808;SDS011;19159;48.178;16.386;2024-01-30T00:06:06;18.40;;;13.75;;
32808;SDS011;19159;48.178;16.386;2024-01-30T00:08:33;18.45;;;13.30;;
32808;SDS011;19159;48.178;16.386;2024-01-30T00:10:58;18.90;;;12.90;;
32808;SDS011;19159;48.178;16.386;2024-01-30T00:13:24;17.73;;;12.35;;
32808;SDS011;19159;48.178;16.386;2024-01-30T00:15:50;20.58;;;12.73;;
32808;SDS011;19159;48.178;16.386;2024-01-30T00:18:15;18.13;;;12.50;;
32808;SDS011;19159;48.178;16.386;2024-01-30T00:20:41;20.73;;;13.27;;
32808;SDS011;19159;48.178;16.386;2024-01-30T00:23:08;13.88;;;11.88;;
32808;SDS011;19159;48.178;16.386;2024-01-30T00:25:33;19.83;;;12.88;;
32808;SDS011;19159;48.178;16.386;2024-01-30T00:27:59;16.92;;;12.55;;
32808;SDS011;19159;48.178;16.386;2024-01-30T00:30:25;19.88;;;13.88;;
32808;SDS011;19159;48.178;16.386;2024-01-30T00:32:51;18.67;;;13.13;;
32808;SDS011;19159;48.178;16.386;2024-01-30T00:35:16;20.60;;;14.32;;
32808;SDS011;19159;48.178;16.386;2024-01-30T00:37:42;20.90;;;12.70;;
32808;SDS011;19159;48.178;16.386;2024-01-30T00:40:08;19.92;;;13.52;;
32808;SDS011;19159;48.178;16.386;2024-01-30T00:42:40;22.17;;;13.60;;
32808;SDS011;19159;48.178;16.386;2024-01-30T00:45:13;16.75;;;12.80;;
32808;SDS011;19159;48.178;16.386;2024-01-30T00:47:39;18.08;;;13.38;;
32808;SDS011;19159;48.178;16.386;2024-01-30T00:50:05;19.95;;;14.18;;
32808;SDS011;19159;48.178;16.386;2024-01-30T00:52:31;20.25;;;12.98;;
32808;SDS011;19159;48.178;16.386;2024-01-30T00:54:58;18.25;;;13.55;;
32808;SDS011;19159;48.178;16.386;2024-01-30T00:57:24;20.65;;;12.73;;
32808;SDS011;19159;48.178;16.386;2024-01-30T00:59:49;17.55;;;13.10;;
32808;SDS011;19159;48.178;16.386;2024-01-30T01:02:15;18.40;;;12.52;;
32808;SDS011;19159;48.178;16.386;2024-01-30T01:04:42;21.38;;;13.27;;
32808;SDS011;19159;48.178;16.386;2024-01-30T01:07:09;22.55;;;12.98;;
32808;SDS011;19159;48.178;16.386;2024-01-30T01:09:35;20.13;;;13.50;;
32808;SDS011;19159;48.178;16.386;2024-01-30T01:12:01;20.88;;;13.25;;
32808;SDS011;19159;48.178;16.386;2024-01-30T01:14:27;20.15;;;13.00;;
32808;SDS011;19159;48.178;16.386;2024-01-30T01:16:53;19.25;;;12.77;;
32808;SDS011;19159;48.178;16.386;2024-01-30T01:19:18;18.52;;;12.45;;
32808;SDS011;19159;48.178;16.386;2024-01-30T01:21:44;17.70;;;12.45;;
32808;SDS011;19159;48.178;16.386;2024-01-30T01:24:10;18.10;;;11.90;;
32808;SDS011;19159;48.178;16.386;2024-01-30T01:26:35;19.58;;;12.65;;
32808;SDS011;19159;48.178;16.386;2024-01-30T01:29:01;18.80;;;12.88;;
32808;SDS011;19159;48.178;16.386;2024-01-30T01:31:29;20.48;;;11.90;;
32808;SDS011;19159;48.178;16.386;2024-01-30T01:33:55;20.38;;;13.45;;
32808;SDS011;19159;48.178;16.386;2024-01-30T01:36:20;17.98;;;13.02;;
32808;SDS011;19159;48.178;16.386;2024-01-30T01:38:46;20.85;;;12.50;;
32808;SDS011;19159;48.178;16.386;2024-01-30T01:41:12;17.88;;;12.80;;
32808;SDS011;19159;48.178;16.386;2024-01-30T01:43:37;17.77;;;12.10;;
32808;SDS011;19159;48.178;16.386;2024-01-30T01:46:04;19.40;;;12.60;;
32808;SDS011;19159;48.178;16.386;2024-01-30T01:48:31;17.77;;;12.73;;
32808;SDS011;19159;48.178;16.386;2024-01-30T01:50:58;17.30;;;12.63;;
32808;SDS011;19159;48.178;16.386;2024-01-30T01:53:24;19.90;;;12.88;;
32808;SDS011;19159;48.178;16.386;2024-01-30T01:55:51;20.02;;;12.27;;
32808;SDS011;19159;48.178;16.386;2024-01-30T01:58:18;18.48;;;12.63;;
32808;SDS011;19159;48.178;16.386;2024-01-30T02:00:45;20.23;;;13.88;;
32808;SDS011;19159;48.178;16.386;2024-01-30T02:03:11;16.23;;;11.93;;
32808;SDS011;19159;48.178;16.386;2024-01-30T02:05:39;21.27;;;12.65;;
32808;SDS011;19159;48.178;16.386;2024-01-30T02:08:07;18.27;;;12.93;;
32808;SDS011;19159;48.178;16.386;2024-01-30T02:10:34;19.45;;;12.05;;
32808;SDS011;19159;48.178;16.386;2024-01-30T02:12:59;16.92;;;12.30;;
32808;SDS011;19159;48.178;16.386;2024-01-30T02:15:25;18.00;;;13.50;;
32808;SDS011;19159;48.178;16.386;2024-01-30T02:17:51;19.35;;;13.23;;
32808;SDS011;19159;48.178;16.386;2024-01-30T02:20:16;18.73;;;13.48;;
32808;SDS011;19159;48.178;16.386;2024-01-30T02:22:42;18.83;;;12.73;;
32808;SDS011;19159;48.178;16.386;2024-01-30T02:25:08;19.58;;;13.18;;
32808;SDS011;19159;48.178;16.386;2024-01-30T02:27:34;22.95;;;12.73;;
32808;SDS011;19159;48.178;16.386;2024-01-30T02:29:59;19.33;;;12.65;;
32808;SDS011;19159;48.178;16.386;2024-01-30T02:32:25;18.05;;;12.40;;
32808;SDS011;19159;48.178;16.386;2024-01-30T02:34:51;19.13;;;12.52;;
32808;SDS011;19159;48.178;16.386;2024-01-30T02:37:16;19.65;;;11.90;;
32808;SDS011;19159;48.178;16.386;2024-01-30T02:39:42;20.75;;;13.55;;
32808;SDS011;19159;48.178;16.386;2024-01-30T02:42:08;16.02;;;12.23;;
32808;SDS011;19159;48.178;16.386;2024-01-30T02:44:33;16.35;;;13.13;;
32808;SDS011;19159;48.178;16.386;2024-01-30T02:46:59;17.25;;;12.73;;
32808;SDS011;19159;48.178;16.386;2024-01-30T02:49:25;21.83;;;13.20;;
32808;SDS011;19159;48.178;16.386;2024-01-30T02:51:51;18.40;;;13.27;;
32808;SDS011;19159;48.178;16.386;2024-01-30T02:54:18;18.85;;;13.75;;
32808;SDS011;19159;48.178;16.386;2024-01-30T02:56:44;19.90;;;13.55;;
32808;SDS011;19159;48.178;16.386;2024-01-30T02:59:09;20.80;;;12.80;;
32808;SDS011;19159;48.178;16.386;2024-01-30T03:01:42;21.05;;;13.55;;
32808;SDS011;19159;48.178;16.386;2024-01-30T03:04:11;17.27;;;12.73;;
32808;SDS011;19159;48.178;16.386;2024-01-30T03:06:37;18.40;;;12.80;;
32808;SDS011;19159;48.178;16.386;2024-01-30T03:09:02;18.05;;;13.50;;
32808;SDS011;19159;48.178;16.386;2024-01-30T03:11:29;19.45;;;12.90;;
32808;SDS011;19159;48.178;16.386;2024-01-30T03:13:55;16.88;;;12.90;;
32808;SDS011;19159;48.178;16.386;2024-01-30T03:16:21;22.08;;;13.10;;
32808;SDS011;19159;48.178;16.386;2024-01-30T03:18:47;22.55;;;13.98;;
32808;SDS011;19159;48.178;16.386;2024-01-30T03:21:13;18.48;;;12.80;;
32808;SDS011;19159;48.178;16.386;2024-01-30T03:23:39;19.60;;;13.13;;
32808;SDS011;19159;48.178;16.386;2024-01-30T03:26:05;17.73;;;13.05;;
32808;SDS011;19159;48.178;16.386;2024-01-30T03:28:31;22.75;;;13.32;;
32808;SDS011;19159;48.178;16.386;2024-01-30T03:30:57;18.30;;;13.27;;
32808;SDS011;19159;48.178;16.386;2024-01-30T03:33:23;17.00;;;13.23;;
32808;SDS011;19159;48.178;16.386;2024-01-30T03:35:48;17.33;;;12.15;;
32808;SDS011;19159;48.178;16.386;2024-01-30T03:38:14;18.25;;;13.45;;
32808;SDS011;19159;48.178;16.386;2024-01-30T03:40:39;16.35;;;12.63;;
32808;SDS011;19159;48.178;16.386;2024-01-30T03:43:05;19.58;;;12.88;;
32808;SDS011;19159;48.178;16.386;2024-01-30T03:45:31;17.23;;;13.02;;
32808;SDS011;19159;48.178;16.386;2024-01-30T03:47:56;19.05;;;13.68;;
32808;SDS011;19159;48.178;16.386;2024-01-30T03:50:22;19.45;;;12.95;;
32808;SDS011;19159;48.178;16.386;2024-01-30T03:52:48;17.65;;;13.38;;
32808;SDS011;19159;48.178;16.386;2024-01-30T03:55:13;20.38;;;12.48;;
32808;SDS011;19159;48.178;16.386;2024-01-30T03:57:39;15.80;;;12.70;;
32808;SDS011;19159;48.178;16.386;2024-01-30T04:00:05;19.17;;;13.70;;
32808;SDS011;19159;48.178;16.386;2024-01-30T04:02:31;16.85;;;12.20;;
32808;SDS011;19159;48.178;16.386;2024-01-30T04:04:56;17.92;;;13.18;;
32808;SDS011;19159;48.178;16.386;2024-01-30T04:07:23;19.90;;;14.15;;
32808;SDS011;19159;48.178;16.386;2024-01-30T04:09:49;19.35;;;13.98;;
32808;SDS011;19159;48.178;16.386;2024-01-30T04:12:14;18.08;;;13.27;;
32808;SDS011;19159;48.178;16.386;2024-01-30T04:14:40;17.73;;;13.27;;
32808;SDS011;19159;48.178;16.386;2024-01-30T04:17:06;18.85;;;13.98;;
32808;SDS011;19159;48.178;16.386;2024-01-30T04:19:31;19.40;;;14.02;;
32808;SDS011;19159;48.178;16.386;2024-01-30T04:21:57;21.50;;;14.75;;
32808;SDS011;19159;48.178;16.386;2024-01-30T04:24:22;19.08;;;14.30;;
32808;SDS011;19159;48.178;16.386;2024-01-30T04:26:48;21.00;;;15.05;;
32808;SDS011;19159;48.178;16.386;2024-01-30T04:29:14;23.10;;;15.43;;
32808;SDS011;19159;48.178;16.386;2024-01-30T04:31:39;20.88;;;13.88;;
32808;SDS011;19159;48.178;16.386;2024-01-30T04:34:05;23.65;;;16.35;;
32808;SDS011;19159;48.178;16.386;2024-01-30T04:36:30;18.73;;;15.43;;
32808;SDS011;19159;48.178;16.386;2024-01-30T04:38:56;23.63;;;15.40;;
32808;SDS011;19159;48.178;16.386;2024-01-30T04:41:22;19.48;;;14.63;;
32808;SDS011;19159;48.178;16.386;2024-01-30T04:43:48;19.80;;;15.50;;
32808;SDS011;19159;48.178;16.386;2024-01-30T04:46:14;21.50;;;15.70;;
32808;SDS011;19159;48.178;16.386;2024-01-30T04:48:39;22.60;;;15.82;;
32808;SDS011;19159;48.178;16.386;2024-01-30T04:51:05;21.33;;;15.30;;
32808;SDS011;19159;48.178;16.386;2024-01-30T04:53:30;24.63;;;15.40;;
32808;SDS011;19159;48.178;16.386;2024-01-30T04:55:57;19.70;;;15.00;;
32808;SDS011;19159;48.178;16.386;2024-01-30T04:58:22;25.02;;;15.50;;
32808;SDS011;19159;48.178;16.386;2024-01-30T05:00:48;22.85;;;15.75;;
32808;SDS011;19159;48.178;16.386;2024-01-30T05:03:16;24.73;;;16.27;;
32808;SDS011;19159;48.178;16.386;2024-01-30T05:05:46;22.48;;;15.80;;
32808;SDS011;19159;48.178;16.386;2024-01-30T05:08:12;23.50;;;15.80;;
32808;SDS011;19159;48.178;16.386;2024-01-30T05:10:38;21.73;;;16.38;;
32808;SDS011;19159;48.178;16.386;2024-01-30T05:13:03;21.27;;;15.55;;
32808;SDS011;19159;48.178;16.386;2024-01-30T05:15:29;19.83;;;15.38;;
32808;SDS011;19159;48.178;16.386;2024-01-30T05:17:55;21.33;;;15.98;;
32808;SDS011;19159;48.178;16.386;2024-01-30T05:20:20;22.40;;;15.68;;
32808;SDS011;19159;48.178;16.386;2024-01-30T05:22:46;24.80;;;16.20;;
32808;SDS011;19159;48.178;16.386;2024-01-30T05:25:12;22.27;;;16.20;;
32808;SDS011;19159;48.178;16.386;2024-01-30T05:27:38;22.90;;;16.38;;
32808;SDS011;19159;48.178;16.386;2024-01-30T05:30:05;20.67;;;16.45;;
32808;SDS011;19159;48.178;16.386;2024-01-30T05:32:31;24.05;;;16.77;;
32808;SDS011;19159;48.178;16.386;2024-01-30T05:34:57;22.15;;;15.73;;
32808;SDS011;19159;48.178;16.386;2024-01-30T05:37:23;28.70;;;16.13;;
32808;SDS011;19159;48.178;16.386;2024-01-30T05:39:48;21.90;;;16.10;;
32808;SDS011;19159;48.178;16.386;2024-01-30T05:42:14;21.15;;;15.10;;
32808;SDS011;19159;48.178;16.386;2024-01-30T05:44:41;24.42;;;17.33;;
32808;SDS011;19159;48.178;16.386;2024-01-30T05:47:07;23.52;;;16.58;;
32808;SDS011;19159;48.178;16.386;2024-01-30T05:49:33;20.58;;;15.13;;
32808;SDS011;19159;48.178;16.386;2024-01-30T05:51:59;24.00;;;15.63;;
32808;SDS011;19159;48.178;16.386;2024-01-30T05:54:27;23.63;;;16.05;;
32808;SDS011;19159;48.178;16.386;2024-01-30T05:56:52;20.92;;;15.50;;
32808;SDS011;19159;48.178;16.386;2024-01-30T05:59:18;22.08;;;15.27;;
32808;SDS011;19159;48.178;16.386;2024-01-30T06:01:47;22.95;;;16.80;;
32808;SDS011;19159;48.178;16.386;2024-01-30T06:04:13;22.35;;;15.90;;
32808;SDS011;19159;48.178;16.386;2024-01-30T06:06:39;24.63;;;17.45;;
32808;SDS011;19159;48.178;16.386;2024-01-30T06:09:05;23.58;;;16.17;;
32808;SDS011;19159;48.178;16.386;2024-01-30T06:11:34;25.20;;;16.10;;
32808;SDS011;19159;48.178;16.386;2024-01-30T06:14:00;22.77;;;15.52;;
32808;SDS011;19159;48.178;16.386;2024-01-30T06:16:25;20.77;;;14.82;;
32808;SDS011;19159;48.178;16.386;2024-01-30T06:18:54;21.88;;;16.15;;
32808;SDS011;19159;48.178;16.386;2024-01-30T06:21:20;21.33;;;15.88;;
32808;SDS011;19159;48.178;16.386;2024-01-30T06:23:46;22.00;;;15.57;;
32808;SDS011;19159;48.178;16.386;2024-01-30T06:26:12;19.33;;;15.05;;
32808;SDS011;19159;48.178;16.386;2024-01-30T06:28:37;22.63;;;15.45;;
32808;SDS011;19159;48.178;16.386;2024-01-30T06:31:03;21.55;;;15.25;;
32808;SDS011;19159;48.178;16.386;2024-01-30T06:33:29;23.08;;;15.43;;
32808;SDS011;19159;48.178;16.386;2024-01-30T06:35:54;22.67;;;16.15;;
32808;SDS011;19159;48.178;16.386;2024-01-30T06:38:20;23.63;;;16.15;;
32808;SDS011;19159;48.178;16.386;2024-01-30T06:40:46;22.35;;;15.15;;
32808;SDS011;19159;48.178;16.386;2024-01-30T06:43:11;20.83;;;14.45;;
32808;SDS011;19159;48.178;16.386;2024-01-30T06:45:37;22.65;;;15.48;;
32808;SDS011;19159;48.178;16.386;2024-01-30T06:48:03;20.42;;;15.00;;
32808;SDS011;19159;48.178;16.386;2024-01-30T06:50:28;21.92;;;14.80;;
32808;SDS011;19159;48.178;16.386;2024-01-30T06:52:54;24.67;;;15.85;;
32808;SDS011;19159;48.178;16.386;2024-01-30T06:55:20;23.13;;;15.38;;
32808;SDS011;19159;48.178;16.386;2024-01-30T06:57:45;23.85;;;16.13;;
32808;SDS011;19159;48.178;16.386;2024-01-30T07:00:11;20.45;;;14.65;;
32808;SDS011;19159;48.178;16.386;2024-01-30T07:02:38;23.83;;;15.32;;
32808;SDS011;19159;48.178;16.386;2024-01-30T07:05:04;20.05;;;15.63;;
32808;SDS011;19159;48.178;16.386;2024-01-30T07:07:30;20.67;;;14.30;;
32808;SDS011;19159;48.178;16.386;2024-01-30T07:09:55;21.10;;;15.52;;
32808;SDS011;19159;48.178;16.386;2024-01-30T07:12:24;21.80;;;14.77;;
32808;SDS011;19159;48.178;16.386;2024-01-30T07:14:51;24.30;;;15.20;;
32808;SDS011;19159;48.178;16.386;2024-01-30T07:17:17;20.33;;;14.90;;
32808;SDS011;19159;48.178;16.386;2024-01-30T07:19:43;20.85;;;14.52;;
32808;SDS011;19159;48.178;16.386;2024-01-30T07:22:08;22.77;;;15.13;;
32808;SDS011;19159;48.178;16.386;2024-01-30T07:24:34;24.42;;;15.68;;
32808;SDS011;19159;48.178;16.386;2024-01-30T07:27:00;20.85;;;14.43;;
32808;SDS011;19159;48.178;16.386;2024-01-30T07:29:25;27.27;;;14.40;;
32808;SDS011;19159;48.178;16.386;2024-01-30T07:31:51;21.25;;;14.23;;
32808;SDS011;19159;48.178;16.386;2024-01-30T07:34:17;18.48;;;14.13;;
32808;SDS011;19159;48.178;16.386;2024-01-30T07:36:42;21.63;;;14.73;;
32808;SDS011;19159;48.178;16.386;2024-01-30T07:39:08;17.70;;;13.35;;
32808;SDS011;19159;48.178;16.386;2024-01-30T07:41:35;19.92;;;13.43;;
32808;SDS011;19159;48.178;16.386;2024-01-30T07:44:00;17.70;;;13.00;;
32808;SDS011;19159;48.178;16.386;2024-01-30T07:46:28;22.67;;;14.48;;
32808;SDS011;19159;48.178;16.386;2024-01-30T07:48:53;19.98;;;13.27;;
32808;SDS011;19159;48.178;16.386;2024-01-30T07:51:20;15.93;;;12.90;;
32808;SDS011;19159;48.178;16.386;2024-01-30T07:53:46;20.67;;;13.73;;
32808;SDS011;19159;48.178;16.386;2024-01-30T07:56:12;19.00;;;13.15;;
32808;SDS011;19159;48.178;16.386;2024-01-30T07:58:37;18.38;;;14.05;;
32808;SDS011;19159;48.178;16.386;2024-01-30T08:01:03;18.25;;;13.52;;
32808;SDS011;19159;48.178;16.386;2024-01-30T08:03:29;21.30;;;12.43;;
32808;SDS011;19159;48.178;16.386;2024-01-30T08:05:54;17.27;;;12.85;;
32808;SDS011;19159;48.178;16.386;2024-01-30T08:08:20;17.35;;;12.77;;
32808;SDS011;19159;48.178;16.386;2024-01-30T08:10:46;19.40;;;13.18;;
32808;SDS011;19159;48.178;16.386;2024-01-30T08:13:11;21.60;;;14.18;;
32808;SDS011;19159;48.178;16.386;2024-01-30T08:15:37;17.17;;;12.35;;
32808;SDS011;19159;48.178;16.386;2024-01-30T08:18:03;17.75;;;13.65;;
32808;SDS011;19159;48.178;16.386;2024-01-30T08:20:30;17.52;;;12.98;;
32808;SDS011;19159;48.178;16.386;2024-01-30T08:22:56;17.80;;;12.80;;
32808;SDS011;19159;48.178;16.386;2024-01-30T08:25:22;15.63;;;12.75;;
32808;SDS011;19159;48.178;16.386;2024-01-30T08:27:47;20.88;;;14.02;;
32808;SDS011;19159;48.178;16.386;2024-01-30T08:30:13;16.88;;;13.10;;
32808;SDS011;19159;48.178;16.386;2024-01-30T08:32:39;17.88;;;12.85;;
32808;SDS011;19159;48.178;16.386;2024-01-30T08:35:05;18.42;;;12.52;;
32808;SDS011;19159;48.178;16.386;2024-01-30T08:37:31;18.42;;;12.57;;
32808;SDS011;19159;48.178;16.386;2024-01-30T08:39:57;17.17;;;12.75;;
32808;SDS011;19159;48.178;16.386;2024-01-30T08:42:22;18.33;;;13.65;;
32808;SDS011;19159;48.178;16.386;2024-01-30T08:44:48;15.50;;;12.05;;
32808;SDS011;19159;48.178;16.386;2024-01-30T08:47:16;17.50;;;12.30;;
32808;SDS011;19159;48.178;16.386;2024-01-30T08:49:42;16.10;;;12.35;;
32808;SDS011;19159;48.178;16.386;2024-01-30T08:52:09;18.25;;;11.73;;
32808;SDS011;19159;48.178;16.386;2024-01-30T08:54:37;16.83;;;11.50;;
32808;SDS011;19159;48.178;16.386;2024-01-30T08:57:10;18.10;;;12.75;;
32808;SDS011;19159;48.178;16.386;2024-01-30T08:59:36;17.20;;;11.93;;
32808;SDS011;19159;48.178;16.386;2024-01-30T09:02:05;18.88;;;13.00;;
32808;SDS011;19159;48.178;16.386;2024-01-30T09:04:30;18.17;;;12.60;;
32808;SDS011;19159;48.178;16.386;2024-01-30T09:06:56;15.68;;;12.55;;
32808;SDS011;19159;48.178;16.386;2024-01-30T09:09:22;16.88;;;12.15;;
32808;SDS011;19159;48.178;16.386;2024-01-30T09:11:47;18.80;;;13.07;;
32808;SDS011;19159;48.178;16.386;2024-01-30T09:14:13;20.00;;;13.10;;
32808;SDS011;19159;48.178;16.386;2024-01-30T09:16:39;17.52;;;12.68;;
32808;SDS011;19159;48.178;16.386;2024-01-30T09:19:04;16.10;;;11.95;;
32808;SDS011;19159;48.178;16.386;2024-01-30T09:21:30;18.02;;;12.73;;
32808;SDS011;19159;48.178;16.386;2024-01-30T09:24:01;18.13;;;13.20;;
32808;SDS011;19159;48.178;16.386;2024-01-30T09:26:29;17.13;;;12.10;;
32808;SDS011;19159;48.178;16.386;2024-01-30T09:28:54;17.50;;;11.27;;
32808;SDS011;19159;48.178;16.386;2024-01-30T09:31:20;13.45;;;10.57;;
32808;SDS011;19159;48.178;16.386;2024-01-30T09:33:45;13.13;;;10.23;;
32808;SDS011;19159;48.178;16.386;2024-01-30T09:36:13;14.40;;;9.93;;
32808;SDS011;19159;48.178;16.386;2024-01-30T09:38:40;14.52;;;10.10;;
32808;SDS011;19159;48.178;16.386;2024-01-30T09:41:07;12.27;;;10.52;;
32808;SDS011;19159;48.178;16.386;2024-01-30T09:43:36;12.55;;;10.60;;
32808;SDS011;19159;48.178;16.386;2024-01-30T09:46:03;13.18;;;10.23;;
32808;SDS011;19159;48.178;16.386;2024-01-30T09:48:31;12.13;;;9.80;;
32808;SDS011;19159;48.178;16.386;2024-01-30T09:50:58;14.27;;;10.38;;
32808;SDS011;19159;48.178;16.386;2024-01-30T09:53:24;11.23;;;9.35;;
32808;SDS011;19159;48.178;16.386;2024-01-30T09:55:50;12.00;;;9.27;;
32808;SDS011;19159;48.178;16.386;2024-01-30T09:58:16;11.43;;;9.00;;
32808;SDS011;19159;48.178;16.386;2024-01-30T10:00:42;12.27;;;9.05;;
32808;SDS011;19159;48.178;16.386;2024-01-30T10:03:08;11.02;;;8.77;;
32808;SDS011;19159;48.178;16.386;2024-01-30T10:05:35;13.57;;;9.07;;
32808;SDS011;19159;48.178;16.386;2024-01-30T10:08:05;12.35;;;9.48;;
32808;SDS011;19159;48.178;16.386;2024-01-30T10:10:34;11.50;;;8.77;;
32808;SDS011;19159;48.178;16.386;2024-01-30T10:13:01;13.65;;;10.25;;
32808;SDS011;19159;48.178;16.386;2024-01-30T10:15:27;13.55;;;9.68;;
32808;SDS011;19159;48.178;16.386;2024-01-30T10:17:54;12.40;;;8.90;;
32808;SDS011;19159;48.178;16.386;2024-01-30T10:20:19;11.20;;;8.48;;
32808;SDS011;19159;48.178;16.386;2024-01-30T10:22:47;13.93;;;8.90;;
32808;SDS011;19159;48.178;16.386;2024-01-30T10:25:14;11.68;;;8.30;;
32808;SDS011;19159;48.178;16.386;2024-01-30T10:27:40;11.75;;;8.65;;
32808;SDS011;19159;48.178;16.386;2024-01-30T10:30:06;10.00;;;8.15;;
32808;SDS011;19159;48.178;16.386;2024-01-30T10:32:32;11.88;;;9.05;;
32808;SDS011;19159;48.178;16.386;2024-01-30T10:34:58;9.30;;;7.72;;
32808;SDS011;19159;48.178;16.386;2024-01-30T10:37:24;11.38;;;9.00;;
32808;SDS011;19159;48.178;16.386;2024-01-30T10:39:51;11.50;;;8.43;;
32808;SDS011;19159;48.178;16.386;2024-01-30T10:42:20;9.38;;;7.75;;
32808;SDS011;19159;48.178;16.386;2024-01-30T10:47:34;10.27;;;7.85;;
32808;SDS011;19159;48.178;16.386;2024-01-30T10:50:03;12.90;;;8.57;;
32808;SDS011;19159;48.178;16.386;2024-01-30T10:52:29;10.52;;;8.52;;
32808;SDS011;19159;48.178;16.386;2024-01-30T10:54:57;9.60;;;8.07;;
32808;SDS011;19159;48.178;16.386;2024-01-30T10:57:24;11.25;;;7.57;;
32808;SDS011;19159;48.178;16.386;2024-01-30T10:59:51;9.45;;;7.60;;
32808;SDS011;19159;48.178;16.386;2024-01-30T11:02:20;11.30;;;7.47;;
32808;SDS011;19159;48.178;16.386;2024-01-30T11:04:46;9.90;;;8.02;;
32808;SDS011;19159;48.178;16.386;2024-01-30T11:07:25;10.15;;;7.78;;
32808;SDS011;19159;48.178;16.386;2024-01-30T11:12:32;9.57;;;7.47;;
32808;SDS011;19159;48.178;16.386;2024-01-30T11:15:02;9.30;;;7.70;;
32808;SDS011;19159;48.178;16.386;2024-01-30T11:17:51;9.43;;;8.00;;
32808;SDS011;19159;48.178;16.386;2024-01-30T11:20:20;11.70;;;7.43;;
32808;SDS011;19159;48.178;16.386;2024-01-30T11:22:47;10.27;;;7.00;;
32808;SDS011;19159;48.178;16.386;2024-01-30T11:25:14;9.48;;;6.80;;
32808;SDS011;19159;48.178;16.386;2024-01-30T11:27:42;10.20;;;6.60;;
32808;SDS011;19159;48.178;16.386;2024-01-30T11:30:08;8.50;;;6.18;;
32808;SDS011;19159;48.178;16.386;2024-01-30T11:32:34;10.35;;;6.50;;
32808;SDS011;19159;48.178;16.386;2024-01-30T11:35:03;10.73;;;6.80;;
32808;SDS011;19159;48.178;16.386;2024-01-30T11:37:31;9.05;;;6.13;;
32808;SDS011;19159;48.178;16.386;2024-01-30T11:39:57;8.38;;;7.03;;
32808;SDS011;19159;48.178;16.386;2024-01-30T11:42:23;9.73;;;6.63;;
32808;SDS011;19159;48.178;16.386;2024-01-30T11:44:52;8.07;;;6.00;;
32808;SDS011;19159;48.178;16.386;2024-01-30T11:47:18;11.85;;;6.82;;
32808;SDS011;19159;48.178;16.386;2024-01-30T11:49:43;8.15;;;6.18;;
32808;SDS011;19159;48.178;16.386;2024-01-30T11:52:10;9.10;;;7.22;;
32808;SDS011;19159;48.178;16.386;2024-01-30T11:54:39;9.32;;;7.05;;
32808;SDS011;19159;48.178;16.386;2024-01-30T11:57:05;10.07;;;7.72;;
32808;SDS011;19159;48.178;16.386;2024-01-30T11:59:31;9.95;;;8.02;;
32808;SDS011;19159;48.178;16.386;2024-01-30T12:01:56;9.25;;;8.18;;
32808;SDS011;19159;48.178;16.386;2024-01-30T12:04:22;8.98;;;7.82;;
32808;SDS011;19159;48.178;16.386;2024-01-30T12:06:51;10.07;;;7.93;;
32808;SDS011;19159;48.178;16.386;2024-01-30T12:09:17;9.93;;;7.78;;
32808;SDS011;19159;48.178;16.386;2024-01-30T12:11:43;9.13;;;7.63;;
32808;SDS011;19159;48.178;16.386;2024-01-30T12:14:13;8.48;;;7.20;;
32808;SDS011;19159;48.178;16.386;2024-01-30T12:16:40;10.32;;;7.32;;
32808;SDS011;19159;48.178;16.386;2024-01-30T12:19:08;11.00;;;7.97;;
32808;SDS011;19159;48.178;16.386;2024-01-30T12:21:34;8.82;;;7.55;;
32808;SDS011;19159;48.178;16.386;2024-01-30T12:24:01;9.23;;;7.32;;
32808;SDS011;19159;48.178;16.386;2024-01-30T12:26:26;8.57;;;7.70;;
32808;SDS011;19159;48.178;16.386;2024-01-30T12:28:56;8.73;;;6.93;;
32808;SDS011;19159;48.178;16.386;2024-01-30T12:31:29;8.63;;;7.13;;
32808;SDS011;19159;48.178;16.386;2024-01-30T12:33:59;11.13;;;7.25;;
32808;SDS011;19159;48.178;16.386;2024-01-30T12:36:25;9.05;;;6.72;;
32808;SDS011;19159;48.178;16.386;2024-01-30T12:38:50;10.15;;;7.35;;
32808;SDS011;19159;48.178;16.386;2024-01-30T12:41:16;10.50;;;7.38;;
32808;SDS011;19159;48.178;16.386;2024-01-30T12:43:43;8.85;;;6.97;;
32808;SDS011;19159;48.178;16.386;2024-01-30T12:46:09;12.55;;;7.03;;
32808;SDS011;19159;48.178;16.386;2024-01-30T12:48:35;10.45;;;7.40;;
32808;SDS011;19159;48.178;16.386;2024-01-30T12:51:01;9.13;;;6.75;;
32808;SDS011;19159;48.178;16.386;2024-01-30T12:53:26;9.70;;;7.45;;
32808;SDS011;19159;48.178;16.386;2024-01-30T12:55:52;10.43;;;7.47;;
32808;SDS011;19159;48.178;16.386;2024-01-30T12:58:19;11.18;;;7.28;;
32808;SDS011;19159;48.178;16.386;2024-01-30T13:00:45;11.52;;;7.78;;
32808;SDS011;19159;48.178;16.386;2024-01-30T13:03:12;11.70;;;6.82;;
32808;SDS011;19159;48.178;16.386;2024-01-30T13:05:37;10.18;;;7.55;;
32808;SDS011;19159;48.178;16.386;2024-01-30T13:08:03;9.70;;;7.07;;
32808;SDS011;19159;48.178;16.386;2024-01-30T13:10:29;15.55;;;7.65;;
32808;SDS011;19159;48.178;16.386;2024-01-30T13:12:55;11.45;;;7.57;;
32808;SDS011;19159;48.178;16.386;2024-01-30T13:15:21;12.68;;;8.65;;
32808;SDS011;19159;48.178;16.386;2024-01-30T13:17:47;15.32;;;7.93;;
32808;SDS011;19159;48.178;16.386;2024-01-30T13:20:14;14.40;;;7.72;;
32808;SDS011;19159;48.178;16.386;2024-01-30T13:22:44;11.93;;;8.25;;
32808;SDS011;19159;48.178;16.386;2024-01-30T13:25:10;11.32;;;7.72;;
32808;SDS011;19159;48.178;16.386;2024-01-30T13:27:39;16.27;;;7.95;;
32808;SDS011;19159;48.178;16.386;2024-01-30T13:30:06;15.82;;;8.63;;
32808;SDS011;19159;48.178;16.386;2024-01-30T13:32:34;13.32;;;7.97;;
32808;SDS011;19159;48.178;16.386;2024-01-30T13:34:59;11.80;;;7.88;;
32808;SDS011;19159;48.178;16.386;2024-01-30T13:37:25;12.18;;;8.65;;
32808;SDS011;19159;48.178;16.386;2024-01-30T13:39:50;19.20;;;8.40;;
32808;SDS011;19159;48.178;16.386;2024-01-30T13:42:16;11.65;;;7.72;;
32808;SDS011;19159;48.178;16.386;2024-01-30T13:44:42;14.32;;;7.70;;
32808;SDS011;19159;48.178;16.386;2024-01-30T13:47:09;12.10;;;8.70;;
32808;SDS011;19159;48.178;16.386;2024-01-30T13:49:35;10.35;;;8.07;;
32808;SDS011;19159;48.178;16.386;2024-01-30T13:52:00;15.18;;;8.50;;
32808;SDS011;19159;48.178;16.386;2024-01-30T13:54:26;12.20;;;8.32;;
32808;SDS011;19159;48.178;16.386;2024-01-30T13:56:51;13.48;;;8.57;;
32808;SDS011;19159;48.178;16.386;2024-01-30T13:59:17;9.43;;;7.63;;
32808;SDS011;19159;48.178;16.386;2024-01-30T14:01:48;10.65;;;8.23;;
32808;SDS011;19159;48.178;16.386;2024-01-30T14:04:14;14.73;;;8.20;;
32808;SDS011;19159;48.178;16.386;2024-01-30T14:06:40;11.27;;;8.48;;
32808;SDS011;19159;48.178;16.386;2024-01-30T14:09:06;10.88;;;8.27;;
32808;SDS011;19159;48.178;16.386;2024-01-30T14:11:31;14.82;;;8.75;;
32808;SDS011;19159;48.178;16.386;2024-01-30T14:13:57;10.77;;;7.25;;